createdAt,value
2018-02-22T00:00:14.256Z,0.74
2018-02-22T00:01:14.243Z,0.68
2018-02-22T00:02:14.231Z,0.63
2018-02-22T00:03:14.219Z,0.64
2018-02-22T00:04:14.209Z,0.59
2018-02-22T00:05:14.196Z,0.52
2018-02-22T00:06:14.183Z,0.67
2018-02-22T00:07:14.171Z,0.62
2018-02-22T00:08:14.158Z,0.49
2018-02-22T00:09:14.145Z,0.60
2018-02-22T00:10:14.134Z,0.52
2018-02-22T00:11:14.121Z,0.51
2018-02-22T00:12:14.105Z,0.40
2018-02-22T00:13:14.092Z,0.53
2018-02-22T00:14:14.080Z,0.43
2018-02-22T00:15:14.068Z,0.57
2018-02-22T00:16:14.054Z,0.59
2018-02-22T00:17:14.043Z,0.62
2018-02-22T00:18:14.030Z,0.49
2018-02-22T00:19:14.017Z,0.45
2018-02-22T00:20:14.008Z,0.38
2018-02-22T00:21:13.993Z,0.44
2018-02-22T00:22:13.981Z,0.38
2018-02-22T00:23:13.968Z,0.48
2018-02-22T00:24:13.955Z,0.43
2018-02-22T00:25:13.944Z,0.44
2018-02-22T00:26:13.930Z,0.52
2018-02-22T00:27:13.919Z,0.60
2018-02-22T00:28:13.903Z,0.59
2018-02-22T00:29:13.889Z,0.57
2018-02-22T00:30:13.877Z,0.59
2018-02-22T00:31:13.864Z,0.51
2018-02-22T00:32:13.850Z,0.51
2018-02-22T00:33:13.838Z,0.44
2018-02-22T00:34:13.825Z,0.48
2018-02-22T00:35:13.812Z,0.56
2018-02-22T00:36:13.802Z,0.56
2018-02-22T00:37:13.789Z,0.60
2018-02-22T00:38:13.777Z,0.59
2018-02-22T00:39:13.765Z,0.53
2018-02-22T00:40:13.750Z,0.57
2018-02-22T00:41:13.738Z,0.52
2018-02-22T00:42:13.725Z,0.64
2018-02-22T00:43:13.756Z,0.60
2018-02-22T00:44:13.696Z,0.56
2018-02-22T00:45:13.683Z,0.59
2018-02-22T00:46:13.670Z,0.49
2018-02-22T00:47:13.658Z,0.57
2018-02-22T00:48:13.644Z,0.53
2018-02-22T00:49:13.632Z,0.56
2018-02-22T00:50:13.621Z,0.56
2018-02-22T00:51:13.606Z,0.57
2018-02-22T00:52:13.595Z,0.57
2018-02-22T00:53:13.583Z,0.63
2018-02-22T00:54:13.570Z,0.60
2018-02-22T00:55:13.559Z,0.56
2018-02-22T00:56:13.544Z,0.57
2018-02-22T00:57:13.533Z,0.56
2018-02-22T00:58:13.518Z,0.49
2018-02-22T00:59:13.506Z,0.59
2018-02-22T01:00:13.489Z,0.56
2018-02-22T01:01:13.478Z,0.56
2018-02-22T01:02:13.464Z,0.48
2018-02-22T01:03:13.452Z,0.37
2018-02-22T01:04:13.439Z,0.37
2018-02-22T01:05:13.424Z,0.33
2018-02-22T01:06:13.412Z,0.30
2018-02-22T01:07:13.400Z,0.12
2018-02-22T01:08:13.388Z,0.01
2018-02-22T01:09:13.377Z,-0.05
2018-02-22T01:10:13.363Z,-0.17
2018-02-22T01:11:13.350Z,-0.14
2018-02-22T01:12:13.343Z,-0.08
2018-02-22T01:13:13.324Z,-0.19
2018-02-22T01:14:13.311Z,-0.32
2018-02-22T01:15:13.299Z,-0.31
2018-02-22T01:16:13.282Z,-0.32
2018-02-22T01:17:13.269Z,-0.32
2018-02-22T01:18:13.256Z,-0.38
2018-02-22T01:19:13.243Z,-0.42
2018-02-22T01:20:13.233Z,-0.44
2018-02-22T01:21:13.219Z,-0.45
2018-02-22T01:22:13.207Z,-0.55
2018-02-22T01:23:13.195Z,-0.45
2018-02-22T01:24:13.179Z,-0.55
2018-02-22T01:25:13.165Z,-0.59
2018-02-22T01:26:13.159Z,-0.58
2018-02-22T01:27:13.140Z,-0.73
2018-02-22T01:28:13.126Z,-0.62
2018-02-22T01:29:13.115Z,-0.74
2018-02-22T01:30:13.101Z,-0.81
2018-02-22T01:31:13.087Z,-0.73
2018-02-22T01:32:13.077Z,-0.90
2018-02-22T01:33:13.064Z,-0.78
2018-02-22T01:34:13.049Z,-0.80
2018-02-22T01:35:13.037Z,-0.85
2018-02-22T01:36:13.024Z,-0.83
2018-02-22T01:37:13.010Z,-0.83
2018-02-22T01:38:12.998Z,-0.99
2018-02-22T01:39:12.985Z,-0.97
2018-02-22T01:40:12.968Z,-0.89
2018-02-22T01:41:12.955Z,-0.96
2018-02-22T01:42:12.943Z,-1.02
2018-02-22T01:43:12.930Z,-0.90
2018-02-22T01:44:12.915Z,-0.93
2018-02-22T01:45:12.902Z,-0.85
2018-02-22T01:46:12.890Z,-0.90
2018-02-22T01:47:12.876Z,-0.85
2018-02-22T01:48:12.865Z,-0.86
2018-02-22T01:49:12.852Z,-0.81
2018-02-22T01:50:12.840Z,-0.77
2018-02-22T01:51:12.827Z,-0.68
2018-02-22T01:52:12.813Z,-0.70
2018-02-22T01:53:12.800Z,-0.65
2018-02-22T01:54:12.785Z,-0.62
2018-02-22T01:55:12.773Z,-0.67
2018-02-22T01:56:12.757Z,-0.62
2018-02-22T01:57:12.743Z,-0.63
2018-02-22T01:58:12.731Z,-0.60
2018-02-22T01:59:12.717Z,-0.50
2018-02-22T02:00:12.703Z,-0.56
2018-02-22T02:01:12.690Z,-0.52
2018-02-22T02:02:12.678Z,-0.37
2018-02-22T02:03:12.665Z,-0.32
2018-02-22T02:04:12.653Z,-0.30
2018-02-22T02:05:12.639Z,-0.19
2018-02-22T02:06:12.627Z,-0.21
2018-02-22T02:07:12.614Z,0.10
2018-02-22T02:08:12.600Z,0.22
2018-02-22T02:09:12.586Z,0.34
2018-02-22T02:10:12.574Z,0.25
2018-02-22T02:11:12.561Z,0.30
2018-02-22T02:12:12.543Z,0.31
2018-02-22T02:13:12.530Z,0.22
2018-02-22T02:14:12.517Z,0.31
2018-02-22T02:15:12.503Z,0.40
2018-02-22T02:16:12.489Z,0.43
2018-02-22T02:17:12.477Z,0.38
2018-02-22T02:18:12.463Z,0.35
2018-02-22T02:19:12.450Z,0.44
2018-02-22T02:20:12.439Z,0.48
2018-02-22T02:21:12.427Z,0.37
2018-02-22T02:22:12.413Z,0.43
2018-02-22T02:23:12.400Z,0.41
2018-02-22T02:24:12.382Z,0.41
2018-02-22T02:25:12.371Z,0.37
2018-02-22T02:26:12.356Z,0.40
2018-02-22T02:27:12.343Z,0.37
2018-02-22T02:28:12.332Z,0.33
2018-02-22T02:29:12.319Z,0.41
2018-02-22T02:30:12.305Z,0.19
2018-02-22T02:31:12.292Z,0.31
2018-02-22T02:32:12.281Z,0.31
2018-02-22T02:33:12.269Z,0.28
2018-02-22T02:34:12.251Z,0.28
2018-02-22T02:35:12.241Z,0.25
2018-02-22T02:36:12.222Z,0.25
2018-02-22T02:37:12.209Z,0.20
2018-02-22T02:38:12.194Z,0.22
2018-02-22T02:39:12.182Z,0.17
2018-02-22T02:40:12.172Z,0.12
2018-02-22T02:41:12.168Z,0.13
2018-02-22T02:42:12.143Z,0.12
2018-02-22T02:43:12.130Z,0.12
2018-02-22T02:44:12.118Z,0.10
2018-02-22T02:45:12.106Z,0.13
2018-02-22T02:46:12.096Z,0.25
2018-02-22T02:47:12.079Z,0.22
2018-02-22T02:48:12.068Z,0.16
2018-02-22T02:49:12.052Z,0.22
2018-02-22T02:50:12.039Z,0.26
2018-02-22T02:51:12.030Z,0.20
2018-02-22T02:52:12.009Z,0.28
2018-02-22T02:53:11.995Z,0.26
2018-02-22T02:54:11.986Z,0.25
2018-02-22T02:55:11.972Z,0.25
2018-02-22T02:56:11.956Z,0.15
2018-02-22T02:57:11.944Z,0.16
2018-02-22T02:58:11.928Z,0.20
2018-02-22T02:59:11.917Z,0.16
2018-02-22T03:00:11.905Z,0.13
2018-02-22T03:01:11.891Z,0.19
2018-02-22T03:02:11.879Z,0.15
2018-02-22T03:03:11.865Z,0.12
2018-02-22T03:04:11.851Z,0.16
2018-02-22T03:05:11.849Z,0.12
2018-02-22T03:06:11.826Z,0.17
2018-02-22T03:07:11.812Z,0.16
2018-02-22T03:08:11.793Z,0.13
2018-02-22T03:09:11.780Z,0.20
2018-02-22T03:10:11.767Z,0.13
2018-02-22T03:11:11.756Z,0.13
2018-02-22T03:12:11.740Z,0.12
2018-02-22T03:13:11.727Z,0.17
2018-02-22T03:14:11.715Z,0.16
2018-02-22T03:15:11.701Z,0.15
2018-02-22T03:16:11.690Z,0.15
2018-02-22T03:17:11.677Z,0.07
2018-02-22T03:18:11.663Z,0.01
2018-02-22T03:19:11.651Z,0.02
2018-02-22T03:20:11.637Z,-0.02
2018-02-22T03:21:11.622Z,0.01
2018-02-22T03:22:11.610Z,0.01
2018-02-22T03:23:11.598Z,0.10
2018-02-22T03:24:11.579Z,0.10
2018-02-22T03:25:11.568Z,-0.01
2018-02-22T03:26:11.553Z,-0.03
2018-02-22T03:27:11.540Z,-0.02
2018-02-22T03:28:11.530Z,0.02
2018-02-22T03:29:11.515Z,-0.08
2018-02-22T03:30:11.507Z,-0.13
2018-02-22T03:31:11.490Z,-0.03
2018-02-22T03:32:11.472Z,-0.16
2018-02-22T03:33:11.460Z,-0.17
2018-02-22T03:34:11.447Z,-0.17
2018-02-22T03:35:11.432Z,-0.16
2018-02-22T03:36:11.419Z,-0.08
2018-02-22T03:37:11.405Z,-0.09
2018-02-22T03:38:11.393Z,0.08
2018-02-22T03:39:11.379Z,0.07
2018-02-22T03:40:11.367Z,0.01
2018-02-22T03:41:11.355Z,-0.08
2018-02-22T03:42:11.341Z,0.05
2018-02-22T03:43:11.329Z,0.13
2018-02-22T03:44:11.314Z,0.12
2018-02-22T03:45:11.301Z,0.08
2018-02-22T03:46:11.288Z,0.12
2018-02-22T03:47:11.274Z,0.16
2018-02-22T03:48:11.258Z,0.10
2018-02-22T03:49:11.244Z,0.12
2018-02-22T03:50:11.231Z,0.08
2018-02-22T03:51:11.219Z,0.04
2018-02-22T03:52:11.202Z,0.01
2018-02-22T03:53:11.192Z,-0.02
2018-02-22T03:54:11.176Z,0.01
2018-02-22T03:55:11.164Z,-0.03
2018-02-22T03:56:11.152Z,-0.03
2018-02-22T03:57:11.139Z,0.01
2018-02-22T03:58:11.126Z,0.05
2018-02-22T03:59:11.112Z,0.07
2018-02-22T04:00:11.098Z,0.15
2018-02-22T04:01:11.085Z,0.12
2018-02-22T04:02:11.071Z,0.12
2018-02-22T04:03:11.060Z,0.26
2018-02-22T04:04:11.043Z,0.26
2018-02-22T04:05:11.029Z,0.23
2018-02-22T04:06:11.014Z,0.20
2018-02-22T04:07:11.001Z,0.07
2018-02-22T04:08:10.990Z,0.15
2018-02-22T04:09:10.975Z,0.13
2018-02-22T04:10:10.960Z,0.17
2018-02-22T04:11:10.948Z,0.19
2018-02-22T04:12:10.938Z,0.20
2018-02-22T04:13:10.924Z,0.17
2018-02-22T04:14:10.910Z,0.19
2018-02-22T04:15:10.896Z,0.23
2018-02-22T04:16:10.882Z,0.20
2018-02-22T04:17:10.868Z,0.22
2018-02-22T04:18:10.854Z,0.26
2018-02-22T04:19:10.841Z,0.37
2018-02-22T04:20:10.824Z,0.26
2018-02-22T04:21:10.815Z,0.23
2018-02-22T04:22:10.797Z,0.31
2018-02-22T04:23:10.783Z,0.28
2018-02-22T04:24:10.769Z,0.23
2018-02-22T04:25:10.757Z,0.28
2018-02-22T04:26:10.744Z,0.22
2018-02-22T04:27:10.729Z,0.25
2018-02-22T04:28:10.718Z,0.49
2018-02-22T04:29:10.705Z,0.37
2018-02-22T04:30:10.692Z,0.35
2018-02-22T04:31:10.678Z,0.44
2018-02-22T04:32:10.661Z,0.52
2018-02-22T04:33:10.647Z,0.35
2018-02-22T04:34:10.634Z,0.41
2018-02-22T04:35:10.621Z,0.37
2018-02-22T04:36:10.608Z,0.37
2018-02-22T04:37:10.596Z,0.40
2018-02-22T04:38:10.582Z,0.38
2018-02-22T04:39:10.570Z,0.41
2018-02-22T04:40:10.554Z,0.41
2018-02-22T04:41:10.540Z,0.41
2018-02-22T04:42:10.528Z,0.41
2018-02-22T04:43:10.513Z,0.23
2018-02-22T04:44:10.496Z,0.34
2018-02-22T04:45:10.482Z,0.31
2018-02-22T04:46:10.469Z,0.38
2018-02-22T04:47:10.457Z,0.35
2018-02-22T04:48:10.442Z,0.34
2018-02-22T04:49:10.428Z,0.31
2018-02-22T04:50:10.416Z,0.25
2018-02-22T04:51:10.401Z,0.41
2018-02-22T04:52:10.389Z,0.41
2018-02-22T04:53:10.376Z,0.43
2018-02-22T04:54:10.363Z,0.35
2018-02-22T04:55:10.348Z,0.41
2018-02-22T04:56:10.337Z,0.38
2018-02-22T04:57:10.322Z,0.38
2018-02-22T04:58:10.308Z,0.40
2018-02-22T04:59:10.294Z,0.22
2018-02-22T05:00:10.277Z,0.28
2018-02-22T05:01:10.264Z,0.33
2018-02-22T05:02:10.250Z,0.37
2018-02-22T05:03:10.238Z,0.38
2018-02-22T05:04:10.226Z,0.35
2018-02-22T05:05:10.210Z,0.40
2018-02-22T05:06:10.195Z,0.41
2018-02-22T05:07:10.181Z,0.23
2018-02-22T05:08:10.170Z,0.26
2018-02-22T05:09:10.157Z,0.22
2018-02-22T05:10:10.143Z,0.28
2018-02-22T05:11:10.129Z,0.34
2018-02-22T05:12:10.114Z,0.22
2018-02-22T05:13:10.102Z,0.23
2018-02-22T05:14:10.102Z,0.19
2018-02-22T05:15:10.112Z,0.20
2018-02-22T05:16:10.058Z,0.17
2018-02-22T05:17:10.043Z,0.23
2018-02-22T05:18:10.030Z,0.16
2018-02-22T05:19:10.016Z,0.26
2018-02-22T05:20:10.002Z,0.25
2018-02-22T05:21:09.988Z,0.23
2018-02-22T05:22:10.008Z,0.23
2018-02-22T05:23:09.961Z,0.22
2018-02-22T05:24:09.950Z,0.28
2018-02-22T05:25:09.936Z,0.23
2018-02-22T05:26:09.922Z,0.12
2018-02-22T05:27:09.913Z,0.16
2018-02-22T05:28:09.895Z,0.20
2018-02-22T05:29:09.881Z,0.15
2018-02-22T05:30:09.868Z,0.28
2018-02-22T05:31:09.852Z,0.20
2018-02-22T05:32:09.836Z,0.19
2018-02-22T05:33:09.821Z,0.15
2018-02-22T05:34:09.808Z,0.19
2018-02-22T05:35:09.795Z,0.13
2018-02-22T05:36:09.783Z,0.07
2018-02-22T05:37:09.769Z,0.12
2018-02-22T05:38:09.755Z,0.07
2018-02-22T05:39:09.743Z,0.07
2018-02-22T05:40:09.725Z,0.04
2018-02-22T05:41:09.710Z,0.05
2018-02-22T05:42:09.697Z,0.04
2018-02-22T05:43:09.684Z,0.10
2018-02-22T05:44:09.669Z,0.04
2018-02-22T05:45:09.656Z,0.12
2018-02-22T05:46:09.642Z,0.10
2018-02-22T05:47:09.629Z,0.12
2018-02-22T05:48:09.616Z,0.10
2018-02-22T05:49:09.603Z,0.12
2018-02-22T05:50:09.589Z,0.05
2018-02-22T05:51:09.576Z,0.04
2018-02-22T05:52:09.561Z,0.04
2018-02-22T05:53:09.547Z,0.08
2018-02-22T05:54:09.534Z,0.04
2018-02-22T05:55:09.519Z,0.05
2018-02-22T05:56:09.505Z,0.16
2018-02-22T05:57:09.489Z,0.12
2018-02-22T05:58:09.475Z,0.19
2018-02-22T05:59:09.461Z,0.12
2018-02-22T06:00:09.447Z,0.13
2018-02-22T06:01:09.433Z,0.17
2018-02-22T06:02:09.419Z,0.23
2018-02-22T06:03:09.407Z,0.07
2018-02-22T06:04:09.394Z,-0.02
2018-02-22T06:05:09.379Z,-0.01
2018-02-22T06:06:09.365Z,0.02
2018-02-22T06:07:09.352Z,-0.14
2018-02-22T06:08:09.339Z,-0.09
2018-02-22T06:09:09.323Z,-0.09
2018-02-22T06:10:09.311Z,-0.05
2018-02-22T06:11:09.297Z,-0.08
2018-02-22T06:12:09.279Z,-0.08
2018-02-22T06:13:09.266Z,-0.12
2018-02-22T06:14:09.251Z,-0.13
2018-02-22T06:15:09.238Z,-0.02
2018-02-22T06:16:09.223Z,-0.02
2018-02-22T06:17:09.209Z,-0.05
2018-02-22T06:18:09.195Z,0.04
2018-02-22T06:19:09.181Z,-0.12
2018-02-22T06:20:09.170Z,-0.06
2018-02-22T06:21:09.156Z,-0.05
2018-02-22T06:22:09.142Z,-0.02
2018-02-22T06:23:09.129Z,-0.06
2018-02-22T06:24:09.118Z,-0.08
2018-02-22T06:25:09.104Z,-0.05
2018-02-22T06:26:09.087Z,-0.08
2018-02-22T06:27:09.073Z,-0.08
2018-02-22T06:28:09.055Z,0.02
2018-02-22T06:29:09.040Z,0.07
2018-02-22T06:30:09.027Z,0.05
2018-02-22T06:31:09.013Z,-0.05
2018-02-22T06:32:09.005Z,-0.01
2018-02-22T06:33:08.988Z,-0.03
2018-02-22T06:34:08.974Z,-0.12
2018-02-22T06:35:08.958Z,-0.06
2018-02-22T06:36:08.945Z,0.05
2018-02-22T06:37:08.932Z,-0.05
2018-02-22T06:38:08.917Z,-0.09
2018-02-22T06:39:08.904Z,-0.09
2018-02-22T06:40:08.886Z,-0.08
2018-02-22T06:41:08.872Z,-0.21
2018-02-22T06:42:08.859Z,-0.14
2018-02-22T06:43:08.846Z,-0.17
2018-02-22T06:44:08.833Z,-0.02
2018-02-22T06:45:08.819Z,-0.09
2018-02-22T06:46:08.805Z,-0.19
2018-02-22T06:47:08.794Z,-0.12
2018-02-22T06:48:08.777Z,-0.06
2018-02-22T06:49:08.764Z,-0.01
2018-02-22T06:50:08.751Z,0.01
2018-02-22T06:51:08.737Z,0.05
2018-02-22T06:52:08.719Z,0.10
2018-02-22T06:53:08.705Z,0.12
2018-02-22T06:54:08.691Z,0.07
2018-02-22T06:55:08.690Z,0.10
2018-02-22T06:56:08.664Z,0.22
2018-02-22T06:57:08.650Z,0.26
2018-02-22T06:58:08.636Z,0.64
2018-02-22T06:59:08.624Z,1.02
2018-02-22T07:00:08.611Z,1.44
2018-02-22T07:01:08.597Z,1.72
2018-02-22T07:02:08.585Z,2.20
2018-02-22T07:03:08.572Z,2.43
2018-02-22T07:04:08.558Z,2.41
2018-02-22T07:05:08.544Z,2.45
2018-02-22T07:06:08.532Z,2.25
2018-02-22T07:07:08.519Z,1.70
2018-02-22T07:08:08.502Z,1.52
2018-02-22T07:09:08.490Z,1.42
2018-02-22T07:10:08.476Z,1.13
2018-02-22T07:11:08.465Z,1.10
2018-02-22T07:12:08.451Z,0.99
2018-02-22T07:13:08.437Z,0.93
2018-02-22T07:14:08.425Z,0.93
2018-02-22T07:15:08.414Z,0.90
2018-02-22T07:16:08.402Z,0.81
2018-02-22T07:17:08.390Z,0.86
2018-02-22T07:18:08.377Z,0.84
2018-02-22T07:19:08.363Z,0.88
2018-02-22T07:20:08.350Z,0.75
2018-02-22T07:21:08.339Z,1.02
2018-02-22T07:22:08.325Z,1.56
2018-02-22T07:23:16.652Z,2.15
2018-02-22T07:24:08.303Z,2.71
2018-02-22T07:25:08.284Z,3.56
2018-02-22T07:26:08.271Z,3.92
2018-02-22T07:27:08.260Z,4.62
2018-02-22T07:28:08.248Z,4.83
2018-02-22T07:29:08.236Z,5.20
2018-02-22T07:30:08.224Z,5.35
2018-02-22T07:31:08.215Z,5.27
2018-02-22T07:32:08.203Z,5.44
2018-02-22T07:33:08.194Z,5.95
2018-02-22T07:34:08.186Z,6.58
2018-02-22T07:35:08.227Z,6.75
2018-02-22T07:36:08.164Z,7.16
2018-02-22T07:37:08.154Z,6.91
2018-02-22T07:38:08.145Z,6.50
2018-02-22T07:39:08.136Z,6.83
2018-02-22T07:40:08.122Z,6.93
2018-02-22T07:41:08.115Z,7.45
2018-02-22T07:42:08.106Z,8.00
2018-02-22T07:43:08.103Z,8.12
2018-02-22T07:44:08.093Z,8.03
2018-02-22T07:45:08.086Z,7.86
2018-02-22T07:46:08.078Z,7.47
2018-02-22T07:47:08.073Z,7.23
2018-02-22T07:48:08.060Z,7.55
2018-02-22T07:49:08.055Z,7.85
2018-02-22T07:50:08.049Z,8.17
2018-02-22T07:51:08.043Z,8.27
2018-02-22T07:52:08.035Z,8.40
2018-02-22T07:53:08.029Z,8.22
2018-02-22T07:54:08.031Z,8.78
2018-02-22T07:55:08.020Z,8.55
2018-02-22T07:56:08.016Z,8.13
2018-02-22T07:57:08.013Z,8.61
2018-02-22T07:58:08.005Z,9.20
2018-02-22T07:59:08.002Z,8.63
2018-02-22T08:00:08.005Z,8.73
2018-02-22T08:01:07.994Z,9.30
2018-02-22T08:02:07.988Z,9.06
2018-02-22T08:03:07.982Z,8.73
2018-02-22T08:04:07.976Z,8.89
2018-02-22T08:05:07.971Z,9.00
2018-02-22T08:06:07.968Z,9.16
2018-02-22T08:07:07.963Z,9.27
2018-02-22T08:08:07.959Z,9.26
2018-02-22T08:09:07.954Z,9.30
2018-02-22T08:10:07.952Z,9.60
2018-02-22T08:11:07.948Z,10.22
2018-02-22T08:12:07.948Z,9.83
2018-02-22T08:13:07.944Z,9.71
2018-02-22T08:14:07.942Z,9.65
2018-02-22T08:15:07.938Z,9.58
2018-02-22T08:16:07.935Z,9.17
2018-02-22T08:17:07.933Z,8.42
2018-02-22T08:18:07.931Z,7.70
2018-02-22T08:19:07.928Z,8.04
2018-02-22T08:20:07.921Z,8.43
2018-02-22T08:21:07.920Z,8.98
2018-02-22T08:22:07.916Z,9.13
2018-02-22T08:23:07.952Z,9.77
2018-02-22T08:24:07.911Z,10.04
2018-02-22T08:25:07.908Z,9.71
2018-02-22T08:26:07.906Z,9.63
2018-02-22T08:27:07.905Z,9.65
2018-02-22T08:28:07.905Z,9.92
2018-02-22T08:29:07.904Z,10.17
2018-02-22T08:30:07.901Z,10.86
2018-02-22T08:31:07.899Z,9.80
2018-02-22T08:32:07.896Z,10.22
2018-02-22T08:33:07.896Z,10.90
2018-02-22T08:34:07.893Z,11.09
2018-02-22T08:35:07.896Z,10.20
2018-02-22T08:36:07.888Z,10.24
2018-02-22T08:37:07.887Z,10.09
2018-02-22T08:38:07.886Z,10.43
2018-02-22T08:39:07.885Z,11.33
2018-02-22T08:40:07.883Z,11.97
2018-02-22T08:41:07.883Z,12.22
2018-02-22T08:42:07.883Z,12.07
2018-02-22T08:43:07.880Z,11.19
2018-02-22T08:44:07.884Z,11.49
2018-02-22T08:45:07.882Z,10.65
2018-02-22T08:46:07.884Z,10.94
2018-02-22T08:47:07.883Z,10.13
2018-02-22T08:48:07.882Z,9.75
2018-02-22T08:49:07.882Z,10.58
2018-02-22T08:50:07.881Z,10.51
2018-02-22T08:51:07.882Z,10.55
2018-02-22T08:52:07.878Z,10.69
2018-02-22T08:53:07.878Z,11.09
2018-02-22T08:54:07.879Z,11.30
2018-02-22T08:55:07.879Z,11.46
2018-02-22T08:56:07.878Z,10.84
2018-02-22T08:57:07.882Z,10.43
2018-02-22T08:58:07.880Z,10.69
2018-02-22T08:59:07.885Z,10.55
2018-02-22T09:00:07.883Z,10.83
2018-02-22T09:01:07.882Z,11.56
2018-02-22T09:02:07.885Z,11.79
2018-02-22T09:03:07.885Z,12.51
2018-02-22T09:04:07.885Z,13.03
2018-02-22T09:05:07.885Z,12.88
2018-02-22T09:06:07.886Z,12.48
2018-02-22T09:07:07.889Z,12.79
2018-02-22T09:08:07.885Z,13.32
2018-02-22T09:09:07.886Z,12.71
2018-02-22T09:10:07.889Z,11.67
2018-02-22T09:11:07.892Z,11.16
2018-02-22T09:12:07.890Z,11.46
2018-02-22T09:13:07.892Z,12.04
2018-02-22T09:14:07.894Z,11.46
2018-02-22T09:15:07.896Z,10.75
2018-02-22T09:16:07.899Z,11.44
2018-02-22T09:17:07.901Z,11.97
2018-02-22T09:18:07.902Z,12.77
2018-02-22T09:19:07.904Z,13.14
2018-02-22T09:20:07.907Z,12.96
2018-02-22T09:21:07.909Z,11.70
2018-02-22T09:22:07.910Z,11.01
2018-02-22T09:23:07.913Z,11.09
2018-02-22T09:24:07.910Z,11.24
2018-02-22T09:25:07.913Z,12.11
2018-02-22T09:26:07.915Z,12.40
2018-02-22T09:27:07.919Z,13.10
2018-02-22T09:28:07.920Z,12.52
2018-02-22T09:29:07.921Z,10.68
2018-02-22T09:30:07.924Z,9.17
2018-02-22T09:31:07.926Z,8.67
2018-02-22T09:32:07.929Z,8.98
2018-02-22T09:33:07.933Z,9.16
2018-02-22T09:34:07.947Z,9.96
2018-02-22T09:35:07.937Z,10.32
2018-02-22T09:36:07.936Z,9.62
2018-02-22T09:37:07.938Z,8.85
2018-02-22T09:38:07.941Z,9.31
2018-02-22T09:39:07.942Z,10.80
2018-02-22T09:40:07.939Z,12.07
2018-02-22T09:41:07.941Z,11.54
2018-02-22T09:42:07.943Z,11.97
2018-02-22T09:43:07.944Z,11.39
2018-02-22T09:44:07.944Z,12.25
2018-02-22T09:45:07.946Z,12.23
2018-02-22T09:46:07.948Z,12.48
2018-02-22T09:47:07.949Z,11.24
2018-02-22T09:48:07.955Z,12.26
2018-02-22T09:49:07.955Z,11.98
2018-02-22T09:50:07.957Z,11.36
2018-02-22T09:51:07.958Z,11.63
2018-02-22T09:52:07.957Z,11.26
2018-02-22T09:53:07.959Z,12.44
2018-02-22T09:54:07.964Z,11.48
2018-02-22T09:55:07.963Z,10.24
2018-02-22T09:56:07.968Z,11.64
2018-02-22T09:57:07.969Z,11.53
2018-02-22T09:58:07.972Z,12.01
2018-02-22T09:59:07.975Z,13.28
2018-02-22T10:00:07.976Z,13.75
2018-02-22T10:01:07.978Z,14.17
2018-02-22T10:02:07.980Z,13.36
2018-02-22T10:03:07.982Z,12.33
2018-02-22T10:04:07.981Z,12.55
2018-02-22T10:05:07.984Z,13.44
2018-02-22T10:06:07.991Z,14.54
2018-02-22T10:07:07.991Z,14.63
2018-02-22T10:08:07.995Z,14.60
2018-02-22T10:09:07.995Z,15.52
2018-02-22T10:10:07.998Z,15.35
2018-02-22T10:11:08.002Z,14.93
2018-02-22T10:12:08.006Z,14.74
2018-02-22T10:13:08.011Z,13.79
2018-02-22T10:14:08.013Z,13.41
2018-02-22T10:15:08.020Z,14.48
2018-02-22T10:16:08.021Z,14.74
2018-02-22T10:17:08.024Z,14.69
2018-02-22T10:18:08.029Z,14.90
2018-02-22T10:19:08.033Z,13.27
2018-02-22T10:20:08.036Z,12.66
2018-02-22T10:21:08.037Z,12.22
2018-02-22T10:22:08.041Z,11.97
2018-02-22T10:23:08.045Z,12.15
2018-02-22T10:24:08.051Z,13.41
2018-02-22T10:25:08.052Z,13.28
2018-02-22T10:26:08.055Z,13.69
2018-02-22T10:27:08.061Z,13.19
2018-02-22T10:28:08.066Z,12.49
2018-02-22T10:29:08.087Z,12.88
2018-02-22T10:30:08.112Z,11.94
2018-02-22T10:31:08.078Z,12.73
2018-02-22T10:32:08.079Z,13.27
2018-02-22T10:33:08.083Z,13.22
2018-02-22T10:34:08.087Z,13.19
2018-02-22T10:35:08.092Z,12.13
2018-02-22T10:36:08.094Z,11.31
2018-02-22T10:37:08.095Z,11.51
2018-02-22T10:38:08.098Z,12.11
2018-02-22T10:39:08.145Z,11.87
2018-02-22T10:40:08.107Z,11.31
2018-02-22T10:41:08.108Z,10.88
2018-02-22T10:42:08.113Z,12.36
2018-02-22T10:43:08.117Z,11.96
2018-02-22T10:44:08.121Z,13.16
2018-02-22T10:45:08.126Z,13.63
2018-02-22T10:46:08.128Z,12.76
2018-02-22T10:47:08.132Z,12.92
2018-02-22T10:48:08.135Z,13.27
2018-02-22T10:49:08.139Z,13.14
2018-02-22T10:50:08.168Z,11.78
2018-02-22T10:51:08.145Z,12.51
2018-02-22T10:52:08.147Z,12.22
2018-02-22T10:53:08.148Z,11.31
2018-02-22T10:54:08.153Z,11.88
2018-02-22T10:55:08.156Z,11.79
2018-02-22T10:56:08.163Z,11.66
2018-02-22T10:57:08.166Z,12.59
2018-02-22T10:58:08.170Z,11.75
2018-02-22T10:59:08.172Z,12.15
2018-02-22T11:00:08.170Z,12.25
2018-02-22T11:01:08.173Z,12.07
2018-02-22T11:02:08.177Z,11.63
2018-02-22T11:03:08.179Z,11.35
2018-02-22T11:04:08.181Z,12.05
2018-02-22T11:05:08.184Z,12.94
2018-02-22T11:06:08.186Z,13.63
2018-02-22T11:07:08.189Z,13.13
2018-02-22T11:08:08.195Z,13.14
2018-02-22T11:09:08.196Z,13.03
2018-02-22T11:10:08.199Z,13.29
2018-02-22T11:11:08.202Z,12.52
2018-02-22T11:12:08.204Z,11.11
2018-02-22T11:13:08.207Z,10.39
2018-02-22T11:14:08.211Z,10.38
2018-02-22T11:15:08.213Z,10.80
2018-02-22T11:16:08.212Z,10.83
2018-02-22T11:17:08.213Z,10.26
2018-02-22T11:18:08.217Z,9.78
2018-02-22T11:19:08.220Z,10.39
2018-02-22T11:20:08.220Z,10.72
2018-02-22T11:21:08.223Z,11.23
2018-02-22T11:22:08.224Z,10.80
2018-02-22T11:23:08.226Z,9.32
2018-02-22T11:24:08.230Z,9.92
2018-02-22T11:25:08.232Z,10.32
2018-02-22T11:26:08.234Z,10.24
2018-02-22T11:27:08.235Z,10.35
2018-02-22T11:28:08.235Z,10.80
2018-02-22T11:29:08.238Z,11.33
2018-02-22T11:30:08.238Z,11.24
2018-02-22T11:31:08.242Z,10.68
2018-02-22T11:32:08.237Z,10.39
2018-02-22T11:33:08.239Z,10.34
2018-02-22T11:34:08.239Z,9.98
2018-02-22T11:35:08.243Z,9.74
2018-02-22T11:36:08.240Z,9.50
2018-02-22T11:37:08.244Z,8.61
2018-02-22T11:38:08.242Z,9.10
2018-02-22T11:39:08.242Z,9.48
2018-02-22T11:40:08.246Z,8.75
2018-02-22T11:41:08.245Z,7.51
2018-02-22T11:42:08.245Z,7.16
2018-02-22T11:43:08.245Z,7.67
2018-02-22T11:44:08.244Z,7.77
2018-02-22T11:45:08.244Z,7.30
2018-02-22T11:46:08.242Z,7.00
2018-02-22T11:47:08.240Z,6.91
2018-02-22T11:48:08.235Z,7.08
2018-02-22T11:49:08.233Z,7.27
2018-02-22T11:50:08.233Z,7.16
2018-02-22T11:51:08.226Z,6.71
2018-02-22T11:52:08.225Z,6.24
2018-02-22T11:53:08.220Z,6.08
2018-02-22T11:54:08.217Z,6.25
2018-02-22T11:55:08.213Z,6.24
2018-02-22T11:56:08.211Z,6.39
2018-02-22T11:57:08.207Z,6.33
2018-02-22T11:58:08.201Z,6.20
2018-02-22T11:59:08.197Z,6.14
2018-02-22T12:00:08.189Z,6.27
2018-02-22T12:01:08.183Z,6.24
2018-02-22T12:02:08.177Z,6.42
2018-02-22T12:03:08.173Z,6.43
2018-02-22T12:04:08.168Z,6.54
2018-02-22T12:05:08.161Z,6.27
2018-02-22T12:06:08.155Z,6.40
2018-02-22T12:07:08.150Z,6.46
2018-02-22T12:08:08.143Z,6.42
2018-02-22T12:09:08.136Z,6.43
2018-02-22T12:10:08.128Z,5.87
2018-02-22T12:11:08.122Z,6.03
2018-02-22T12:12:08.113Z,6.03
2018-02-22T12:13:08.106Z,6.06
2018-02-22T12:14:08.098Z,6.13
2018-02-22T12:15:08.096Z,5.95
2018-02-22T12:16:08.084Z,5.80
2018-02-22T12:17:08.075Z,5.81
2018-02-22T12:18:08.069Z,6.11
2018-02-22T12:19:08.061Z,6.27
2018-02-22T12:20:08.055Z,6.40
2018-02-22T12:21:08.048Z,6.57
2018-02-22T12:22:08.041Z,6.51
2018-02-22T12:23:08.033Z,6.40
2018-02-22T12:24:08.026Z,6.50
2018-02-22T12:25:08.073Z,6.43
2018-02-22T12:26:08.010Z,6.30
2018-02-22T12:27:08.002Z,6.16
2018-02-22T12:28:07.990Z,6.16
2018-02-22T12:29:07.986Z,6.39
2018-02-22T12:30:07.974Z,6.24
2018-02-22T12:31:07.976Z,6.40
2018-02-22T12:32:07.958Z,6.39
2018-02-22T12:33:07.949Z,6.43
2018-02-22T12:34:07.942Z,6.32
2018-02-22T12:35:07.939Z,6.39
2018-02-22T12:36:07.929Z,6.33
2018-02-22T12:37:07.921Z,6.19
2018-02-22T12:38:07.913Z,6.16
2018-02-22T12:39:07.904Z,6.24
2018-02-22T12:40:07.896Z,6.35
2018-02-22T12:41:07.897Z,6.30
2018-02-22T12:42:07.880Z,6.33
2018-02-22T12:43:07.873Z,6.27
2018-02-22T12:44:07.860Z,6.24
2018-02-22T12:45:07.852Z,6.36
2018-02-22T12:46:07.844Z,6.36
2018-02-22T12:47:07.835Z,6.25
2018-02-22T12:48:07.825Z,6.35
2018-02-22T12:49:07.819Z,6.36
2018-02-22T12:50:07.810Z,6.42
2018-02-22T12:51:07.802Z,6.46
2018-02-22T12:52:07.796Z,6.60
2018-02-22T12:53:07.787Z,6.42
2018-02-22T12:54:07.780Z,6.28
2018-02-22T12:55:07.773Z,6.25
2018-02-22T12:56:07.763Z,6.13
2018-02-22T12:57:07.755Z,6.06
2018-02-22T12:58:07.746Z,6.14
2018-02-22T12:59:07.739Z,6.10
2018-02-22T13:00:07.727Z,5.87
2018-02-22T13:01:07.719Z,5.77
2018-02-22T13:02:07.710Z,5.85
2018-02-22T13:03:07.704Z,5.96
2018-02-22T13:04:07.696Z,5.95
2018-02-22T13:05:07.687Z,5.98
2018-02-22T13:06:07.680Z,6.13
2018-02-22T13:07:07.671Z,6.13
2018-02-22T13:08:07.658Z,6.27